Listado único de aspirantes (Periodo de valoración 31 octubre de 2021)


* Listado ordenado por Apellidos, Nombre. Recuerde que también puede ordenarlo por el Total Autobaremo

Listado único de aspirantes admitidos en turno libre en la bolsa de selección de personal estatutario temporal, categoría: Enfermera-Area de Cuidados Críticos
Apellidos, Nombre Exp. SAS Auto. Exp. NO SAS Auto. Form. Auto. otros méritos Total Auto. Exp. SAS Baremo Exp. NO SAS Baremo Form. Baremo Otros méritos Punt. Total Baremo Fecha Act.
CARNEROS BEAMUD, MªCARMEN 0,000 23,700 35,000 10,650 69,350 0,000 20,400 35,000 7,475 62,875 15/12/2022
CARNEVALI RUIZ, BLANCA 5,100 8,400 16,000 0,000 29,500 5,100 3,000 16,000 0,000 24,100 15/12/2022
CARO CALDERÓN, ANA BELÉN 0,000 2,100 36,000 0,500 38,600 0,000 2,100 36,000 0,500 38,600 15/12/2022
CARO CALDERON, SANDRA 14,700 7,800 36,000 2,000 60,500 14,700 7,800 36,000 1,100 59,600 15/12/2022
CARO CAMPANARIO, MªELENA 16,500 16,500 36,000 0,300 69,300 16,500 16,500 36,000 0,000 69,000 15/12/2022
CARO DOMINGUEZ, ANA BELEN 9,000 0,000 34,000 0,000 43,000 9,000 0,000 34,000 0,000 43,000 15/12/2022
CARO DOMÍNGUEZ, CARMEN 1,200 10,350 33,000 6,900 51,450 1,200 7,200 33,000 6,900 48,300 15/12/2022
CARO GRACIA, MARIA JESUS 2,100 13,500 36,000 0,700 52,300 2,100 12,500 32,075 0,400 47,075 15/12/2022
CARO LOPEZ, MARIA JOSE 56,400 0,000 34,000 0,100 90,500 56,400 0,000 34,000 0,000 90,400 15/12/2022
CARO MACHUCA, MARÍA REYES 53,400 5,000 30,000 6,900 95,300 53,400 5,000 30,000 6,000 94,400 15/12/2022
CARO MARÍN, MARIA DE LAO 3,600 49,200 36,000 3,600 92,400 3,600 49,500 36,000 3,000 92,100 15/12/2022
CARO MARTOS, INMACULADA 65,750 0,000 39,000 0,375 105,125 65,750 0,000 39,000 0,275 105,025 15/12/2022
CARO MORALES, CARLA GEMA 13,800 15,000 36,000 2,000 66,800 13,800 15,000 36,000 2,000 66,800 15/12/2022
CARO MORALES, NAZARET 7,500 2,800 36,000 3,800 50,100 7,500 0,000 36,000 3,500 47,000 15/12/2022
CARO PÉREZ, MONTSERRAT 43,800 3,000 36,000 0,000 82,800 43,800 1,650 36,000 0,000 81,450 15/12/2022
CARO RIVERO, MARIA PILAR 16,500 20,800 36,000 0,300 73,600 16,500 20,200 36,000 0,300 73,000 15/12/2022
CARO SANCHEZ, ANTONIO 25,500 8,100 36,000 0,000 69,600 25,500 8,100 36,000 0,000 69,600 15/12/2022
CARO SANCHEZ, SANDRA 0,000 39,000 36,000 1,675 76,675 0,000 39,000 36,000 1,000 76,000 15/12/2022
CARO TINOCO, DESIRÉE 21,300 3,600 36,000 0,500 61,400 21,300 3,600 36,000 0,500 61,400 15/12/2022
CARPENA ISTAN, EVA 0,000 23,100 33,000 0,000 56,100 0,000 16,200 27,650 0,000 43,850 15/12/2022
CARPINTERO GONZÁLEZ, MARÍA CARMEN 8,400 0,500 36,000 0,000 44,900 8,400 0,500 36,000 0,000 44,900 15/12/2022
CARPIO BLANCO, JOSE LUIS 2,100 16,500 36,000 20,000 74,600 2,100 16,500 36,000 0,500 55,100 15/12/2022
CARPIO BLANCO, MARCOS 0,000 18,600 30,000 0,000 48,600 0,000 13,800 27,750 0,000 41,550 15/12/2022
CARPIO ENCINAS, MONTSERRAT 5,400 5,350 36,000 0,950 47,700 5,400 0,000 29,300 0,000 34,700 15/12/2022
CARRANZA MUÑOZ, MARÍA 6,300 2,400 36,000 0,000 44,700 6,300 2,400 36,000 0,000 44,700 15/12/2022
CARRANZA SÁNCHEZ, FRANCISCO JOSÉ 9,300 0,000 36,000 0,000 45,300 9,300 0,000 35,500 0,000 44,800 15/12/2022
CARRASCAL TIRADO, JOSE ANTONIO 13,200 21,600 36,000 0,300 71,100 13,200 21,600 36,000 0,000 70,800 15/12/2022
CARRASCO BERNALDEZ, DIEGO 0,000 44,700 30,000 0,350 75,050 0,000 25,200 15,700 0,350 41,250 15/12/2022
CARRASCO CAPILLA, MONTSERRAT 3,600 26,100 30,000 0,300 60,000 3,600 6,000 30,000 0,000 39,600 15/12/2022
CARRASCO CEJUDO, MARIA DE LOS ÁNGELES 24,600 7,000 36,000 4,850 72,450 24,600 0,900 36,000 3,600 65,100 15/12/2022
CARRASCO CLAROS, HUMILDAD 13,500 0,000 36,000 1,000 50,500 13,500 0,000 36,000 1,000 50,500 15/12/2022
CARRASCO CORTES, JESICA 9,300 9,000 36,000 9,225 63,525 9,300 9,000 36,000 2,725 57,025 15/12/2022
CARRASCO GALVEZ, RAQUEL 53,700 0,000 36,000 0,300 90,000 53,700 0,000 36,000 0,000 89,700 15/12/2022
CARRASCO GARCIA, MARIA LUISA 36,900 0,000 34,000 6,000 76,900 36,900 0,000 34,000 6,000 76,900 15/12/2022
CARRASCO GONZÁLEZ, FRANCISCO 0,000 17,000 29,550 1,600 48,150 0,000 0,200 19,750 0,000 19,950 15/12/2022
CARRASCO LÓPEZ, JOHANA 0,600 61,200 35,000 0,000 96,800 0,600 61,200 35,000 0,000 96,800 15/12/2022
CARRASCO MARÍN, MIRELLA 4,200 0,000 36,000 0,500 40,700 4,200 0,000 36,000 0,500 40,700 15/12/2022
CARRASCO MORA, MARIA 5,700 0,000 36,000 0,000 41,700 5,700 0,000 36,000 0,000 41,700 15/12/2022
CARRASCO MORENO, PABLO 7,200 20,100 35,000 0,000 62,300 7,200 20,100 35,000 0,000 62,300 15/12/2022
CARRASCO MORILLO-VELARDE, MANUEL 0,000 26,700 36,000 1,000 63,700 0,000 26,700 36,000 1,000 63,700 15/12/2022
CARRASCO OJEDA, MARTA 3,900 1,900 33,000 1,000 39,800 3,900 0,000 33,000 0,000 36,900 15/12/2022
CARRASCO RACERO, Mª MERCEDES 60,250 2,850 36,000 6,550 105,650 60,250 2,850 36,000 4,950 104,050 15/12/2022
CARRASCO RIVERO, CRISTINA 1,600 5,900 39,000 0,000 46,500 1,600 4,900 38,900 0,000 45,400 15/12/2022
CARRASCO RODRIGUEZ, ISABEL MARIA 16,500 6,900 36,000 2,925 62,325 16,500 6,900 36,000 2,925 62,325 15/12/2022
CARRASCO RODRÍGUEZ, MªÁNGELES 16,800 3,700 36,000 7,300 63,800 16,800 3,700 36,000 7,000 63,500 15/12/2022
CARRASCO RUEDA, SUSANA 47,700 0,000 36,000 6,000 89,700 47,700 0,000 36,000 6,000 89,700 15/12/2022
CARRASCO RUIZ DE VALDIVA, MANUEL 1,200 13,800 36,000 7,000 58,000 1,200 13,800 36,000 7,000 58,000 15/12/2022
CARRASCO SALAS, SARA 22,800 0,000 36,000 0,700 59,500 22,800 0,000 36,000 0,700 59,500 15/12/2022
CARRASCO SALINAS, CRISTINA 49,800 11,300 36,000 4,250 101,350 49,800 11,300 36,000 3,350 100,450 15/12/2022
CARRASCO SOLANO, LOURDES 27,900 1,600 36,000 1,000 66,500 27,900 1,600 36,000 1,000 66,500 15/12/2022
CARRASCOSA ALMELA, VERONICA 5,400 4,400 36,000 0,500 46,300 5,400 4,400 36,000 0,500 46,300 15/12/2022
CARRASCOSA HERNÁNDEZ, RUFINA 15,000 0,200 36,000 2,600 53,800 15,000 0,000 36,000 2,000 53,000 15/12/2022
CARRASCOSA ROBLES, JOSÉ MARÍA 5,400 0,000 36,000 0,000 41,400 5,400 0,000 36,000 0,000 41,400 15/12/2022
CARRASCOSO GARCIA, GLORIA AMANDA 6,000 15,000 36,000 2,000 59,000 6,000 15,000 36,000 2,000 59,000 15/12/2022
CARRÉGALO GARCÍA, ANGELES 6,300 40,800 30,000 3,000 80,100 6,300 37,200 30,000 3,000 76,500 15/12/2022
CARREIRA SUERO, ROSARIO 70,000 9,600 36,000 0,675 106,675 70,000 9,600 36,000 0,025 106,025 15/12/2022
CARREÑO CUADRA, Mª JOSE 7,500 25,950 36,000 20,000 89,450 7,500 25,950 36,000 4,200 73,650 15/12/2022
CARREÑO GÓMEZ, MARIA 2,700 33,600 39,000 0,000 75,300 2,700 0,000 39,000 0,000 41,700 15/12/2022
CARREÑO SANCHEZ, LEONOR AUXILIADORA 26,700 0,000 36,000 6,100 68,800 26,700 0,000 36,000 6,100 68,800 15/12/2022
CARRERA BARRANQUERO, JAVIER 7,800 26,200 39,000 3,150 76,150 7,800 19,000 39,000 3,000 68,800 15/12/2022
CARRERA CANSINO, FRANCISCO 3,050 15,000 36,000 0,000 54,050 3,050 15,000 36,000 0,000 54,050 15/12/2022
CARRERA GONZALEZ, JAVIER 24,600 9,600 36,000 5,100 75,300 24,600 2,100 36,000 4,500 67,200 15/12/2022
CARRERA RODRÍGUEZ, ANTONIO 0,000 17,100 36,000 0,500 53,600 0,000 17,100 36,000 0,500 53,600 15/12/2022
CARRERAS MARIN, MARTA 2,400 9,600 36,000 0,100 48,100 2,400 9,900 36,000 0,100 48,100 15/12/2022
CARRERAS SALCEDO, EVA 1,200 23,700 36,000 8,550 69,450 1,200 16,500 36,000 3,800 57,500 15/12/2022
CARRERO DELGADO, NATALIA 12,900 7,200 36,000 3,800 59,900 12,900 7,200 36,000 3,500 59,600 15/12/2022
CARRETERO CEREZO, ANA MARIA 3,300 1,700 33,000 0,000 38,000 3,300 1,500 24,250 0,000 29,050 15/12/2022
CARRETERO CERRO, CRISTINA 0,000 9,900 35,000 0,025 44,925 0,000 7,800 32,000 0,000 39,800 15/12/2022
CARRETERO FERNÁNDEZ, LUCÍA 10,200 0,000 36,000 0,750 46,950 10,200 0,000 36,000 0,500 46,700 15/12/2022
CARRETERO GUTIERREZ, FERNANDO 3,600 43,000 36,000 0,000 82,600 3,600 40,200 36,000 0,000 79,800 15/12/2022
CARRETERO GUTIERREZ, PILAR 3,000 3,100 36,000 0,000 42,100 3,000 3,100 36,000 0,000 42,100 15/12/2022
CARRETERO HIDALGO, JUAN MANUEL 0,300 9,300 33,000 3,000 45,600 0,300 9,300 33,000 3,000 45,600 15/12/2022
CARRICONDO RODRIGUEZ, Mª PILAR 54,900 0,900 26,000 0,000 81,800 54,900 0,900 24,000 0,000 79,800 15/12/2022
CARRILLO BERRUEZO, JOSE ANTONIO 1,800 6,700 36,000 0,000 44,500 1,800 4,800 36,000 0,000 42,600 15/12/2022
CARRILLO COLLADO, ANA ISABEL 5,400 0,150 36,000 0,000 41,550 5,400 0,150 36,000 0,000 41,550 15/12/2022
CARRILLO CORDOBA, CARMEN LAURA 5,100 11,400 35,000 0,000 51,500 5,100 3,900 35,000 0,000 44,000 15/12/2022
CARRILLO DIAZ, YURENA 23,400 2,100 33,100 2,500 61,100 23,400 2,100 30,850 0,500 56,850 15/12/2022
CARRILLO GARCIA, ARACELI 2,100 19,050 39,000 3,150 63,300 2,100 6,000 39,000 3,150 50,250 15/12/2022
CARRILLO JIMENÉZ, CARMEN 20,100 11,700 36,000 5,500 73,300 20,100 11,700 36,000 5,500 73,300 15/12/2022
CARRILLO MARTIN, TERESA 54,300 3,500 36,000 0,000 93,800 54,300 3,500 35,775 0,000 93,575 15/12/2022
CARRILLO MARTÍNEZ, Mª DEL MAR 11,350 3,050 39,000 11,575 64,975 11,350 3,050 39,000 6,775 60,175 15/12/2022
CARRILLO MATÍAS, ELOÍSA 2,700 0,000 35,000 0,000 37,700 2,700 0,000 32,000 0,000 34,700 15/12/2022
CARRILLO NUÑEZ, LAURA MARÍA 2,400 11,400 36,000 1,500 51,300 2,400 9,900 36,000 0,000 48,300 15/12/2022
CARRILLO NÚÑEZ, MARÍA SALUD 1,200 2,700 36,000 0,500 40,400 1,200 2,700 36,000 0,500 40,400 15/12/2022
CARRILLO PÉREZ, ISABEL MARIA 62,100 2,300 36,000 0,100 100,500 62,100 2,300 36,000 0,100 100,500 15/12/2022
CARRILLO PEREZ, PAULA 4,800 2,100 36,000 0,300 43,200 4,800 2,100 36,000 0,000 42,900 15/12/2022
CARRILLO RUIZ, MONICA 14,100 22,200 36,000 1,000 73,300 14,100 22,200 36,000 1,000 73,300 15/12/2022
CARRILLO RUIZ-CANELA, ÁUREA MARIA 0,900 0,000 32,000 0,000 32,900 0,900 0,000 29,850 0,000 30,750 15/12/2022
CARRILLO SANCHEZ, EMILIO JOSE 7,200 1,500 36,000 0,000 44,700 7,200 0,900 36,000 0,000 44,100 15/12/2022
CARRILLO SANCHEZ, SILVIA 0,000 19,700 36,000 1,450 57,150 0,000 11,100 14,875 0,275 26,250 15/12/2022
CARRILLO TRABALÓN, FRANCISCO LUIS 3,600 0,000 36,000 1,000 40,600 3,600 0,000 36,000 1,000 40,600 15/12/2022
CARRIÓN ARENAS, LAURA 1,200 0,000 39,000 1,000 41,200 1,200 0,000 32,240 0,500 33,940 15/12/2022
CARRIÓN BLANCO, INMACULADA 0,000 4,800 34,000 0,000 38,800 0,000 0,000 25,400 0,000 25,400 15/12/2022
CARRIÓN DE LINARES, MACARENA 6,600 0,600 36,000 2,400 45,600 6,600 0,600 36,000 0,000 43,200 15/12/2022
CARRIÓN HERRERA, IRENE 3,000 4,050 39,000 3,900 49,950 3,000 4,050 39,000 2,400 48,450 15/12/2022
CARRION MEDINA, ANA CELIA 14,100 10,800 36,000 0,500 61,400 14,100 10,800 36,000 0,500 61,400 15/12/2022
CARRION MEDINA, RUBEN 0,000 26,700 36,000 0,000 62,700 0,000 26,700 36,000 0,000 62,700 15/12/2022
CARRO DUEÑAS, MIRIAM 0,000 32,400 34,000 0,000 66,400 0,000 20,100 30,625 0,000 50,725 15/12/2022
CARVAJAL DIAZ, LOURDES 0,000 22,050 34,000 3,000 59,050 0,000 0,000 34,000 3,000 37,000 15/12/2022
CARVAJAL MURIEL, ANTONIO JESÚS 15,900 15,150 36,000 5,925 72,975 15,900 15,150 36,000 4,025 71,075 15/12/2022
CARVAJAL ROSILLO, FCO MANUEL 0,000 30,600 36,000 0,000 66,600 0,000 30,600 36,000 0,000 66,600 15/12/2022
CARVAJAL VALENCIANO, CAROLINA 13,200 1,200 36,000 0,800 51,200 13,200 1,200 36,000 0,500 50,900 15/12/2022
CASADO CASTILLO, GEMA 0,300 1,300 30,000 3,000 34,600 0,300 0,000 17,125 3,000 20,425 15/12/2022
CASADO FERNÁNDEZ, LUCÍA 0,000 20,100 36,000 0,050 56,150 0,000 18,000 36,000 0,000 54,000 15/12/2022
CASADO GÓMEZ, ANA 9,600 0,450 34,400 8,500 52,950 9,600 1,800 22,075 0,500 33,975 15/12/2022
CASADO GÓMEZ, CRISTINA 0,000 9,250 39,000 13,775 62,025 0,000 5,100 36,000 12,300 53,400 15/12/2022
CASADO GUTIÉRREZ, SANDRA 7,500 0,000 34,000 4,100 45,600 7,500 0,000 34,000 4,100 45,600 15/12/2022
CASADO MUÑIZ, MACARENA 70,000 0,000 33,000 7,650 110,650 70,000 0,000 33,000 4,825 107,825 15/12/2022
CASADO RUBIO, PABLO ESTEBAN 8,400 33,800 36,000 0,400 78,600 8,400 9,900 36,000 0,400 54,700 15/12/2022
CASADO VAZQUEZ, ANA DEL ROCÍO 15,600 0,200 36,000 3,000 54,800 15,600 0,200 36,000 1,500 53,300 15/12/2022
CASAL GARCIA DE LOMAS, MARIA TERESA 11,400 14,400 36,000 2,000 63,800 11,400 14,400 36,000 2,000 63,800 15/12/2022
CASAL NIEVAS, NIEVES DEL ROCIO 0,000 20,500 36,000 0,050 56,550 0,000 18,600 36,000 0,000 54,600 15/12/2022
CASARES RIVAS, MARIA DEL MAR 19,800 2,700 36,000 10,000 68,500 19,800 2,700 36,000 8,800 67,300 15/12/2022
CASAS CLEMENT, CAROLINA 13,500 0,000 39,000 1,500 54,000 13,500 0,000 39,000 1,500 54,000 15/12/2022
CASAS FERNÁNDEZ, CARMEN 0,600 2,700 36,000 3,200 42,500 0,600 2,700 36,000 3,200 42,500 15/12/2022
CASAS LOPEZ, GEMA 0,150 1,700 39,000 10,150 51,000 0,150 1,700 39,000 8,450 49,300 15/12/2022
CASAS LÓPEZ, MARÍA 46,800 0,000 36,000 3,500 86,300 46,800 0,000 36,000 3,500 86,300 15/12/2022
CASAS MOYANO, Mª DEL CARMEN 24,900 0,200 36,000 3,000 64,100 24,900 0,200 36,000 3,000 64,100 15/12/2022
CASAS MOYANO, Mª INMACULADA 2,700 22,250 36,000 2,500 63,450 2,700 21,300 36,000 1,900 61,900 15/12/2022
CASAS RAYA, MARIA DEL CARMEN 14,700 0,000 36,000 2,400 53,100 14,700 0,000 36,000 1,900 52,600 15/12/2022
CASÁS RODRÍGUEZ, VIRGINIA 19,800 21,000 35,000 0,500 76,300 19,800 21,000 32,000 0,100 72,900 15/12/2022
CASAS ROMERO, SARA 45,900 0,000 36,000 0,000 81,900 45,900 0,000 36,000 0,000 81,900 15/12/2022
CASAS RUIZ, JOSE MIGUEL 0,000 25,200 36,000 0,700 61,900 0,000 25,200 29,900 0,000 55,100 15/12/2022
CASASOLA PANIAGUA, PABLO 15,900 24,600 36,000 9,000 85,500 15,900 24,600 35,000 9,000 84,500 15/12/2022
CASCADO MARTINEZ, ESTELA 5,400 57,900 32,000 0,000 95,300 5,400 0,000 23,125 0,000 28,525 15/12/2022
CASCALES MESA, ISABEL DOLORES 13,800 4,800 36,000 0,000 54,600 13,800 4,800 36,000 0,000 54,600 15/12/2022
CASCOS ARIAS, ESTHER 0,000 69,900 30,000 1,700 101,600 0,000 69,900 30,000 0,700 100,600 15/12/2022
CASERO SÁNCHEZ, MARÍA ISABEL 22,800 0,000 36,000 4,250 63,050 22,800 0,000 36,000 4,250 63,050 15/12/2022
CASILLA BRAVO, JOSE 55,400 3,900 39,000 3,375 101,675 55,400 0,900 39,000 3,075 98,375 15/12/2022
CASILLAS JURADO, NOELIA MARÍA 11,700 8,200 36,000 11,625 67,525 11,700 7,000 36,000 11,025 65,725 15/12/2022
CASTAÑARES GONZALO, LARA 0,000 17,300 30,000 0,000 47,300 0,000 15,900 26,700 0,000 42,600 15/12/2022
CASTAÑEDA BENEDICTO, JAVIER 54,000 0,000 36,000 4,050 94,050 54,000 0,000 36,000 3,100 93,100 15/12/2022
CASTAÑEDA MENA, MARÍA DEL MAR 0,000 12,600 35,000 1,200 48,800 0,000 12,600 35,000 1,200 48,800 15/12/2022
CASTAÑEDA PALMA, MARIA ESTRELLA 9,000 0,000 36,000 0,000 45,000 9,000 0,000 36,000 0,000 45,000 15/12/2022
CASTAÑO CABALLERO, MARTA 1,500 9,600 36,000 1,500 48,600 1,500 9,600 36,000 1,500 48,600 15/12/2022
CASTAÑO CASCO, MARÍA 8,400 0,000 36,000 4,000 48,400 8,400 0,000 36,000 3,500 47,900 15/12/2022
CASTAÑO GARCIA, MARINA 6,600 2,000 36,000 0,500 45,100 6,600 0,600 36,000 0,500 43,700 15/12/2022
CASTAÑO HARO, ANA MARIA 27,550 7,550 36,000 8,100 79,200 27,550 7,550 36,000 5,000 76,100 15/12/2022
CASTAÑO LLAMAS, MARÍA DOLORES 9,600 5,250 36,000 1,400 52,250 9,600 5,250 36,000 1,400 52,250 15/12/2022
CASTAÑO ORTEGA, MARIA PILAR 6,600 27,900 39,000 3,000 75,300 6,600 26,700 39,000 3,000 75,300 15/12/2022
CASTAÑO RODRIGUEZ, GEMA 3,300 60,300 39,000 3,300 105,900 3,300 60,300 39,000 3,000 105,600 15/12/2022
CASTAÑO RODRIGUEZ, PAULA 0,000 8,100 35,000 3,050 46,150 0,000 5,400 35,000 3,000 43,400 15/12/2022
CASTAÑO TORRECILLAS, MARÍA JESÚS 7,500 0,900 36,000 3,500 47,900 7,500 0,900 36,000 3,500 47,900 15/12/2022
CASTEJÓN MARTÍN, GUADALUPE 0,000 6,300 14,250 0,000 20,550 0,000 6,300 14,250 0,000 20,550 15/12/2022
CASTELL CANO, ROCIO 7,300 0,300 36,000 1,450 45,050 7,300 0,000 36,000 1,150 44,450 15/12/2022
CASTELL MÉNDEZ, MARTA 5,400 2,700 33,000 0,000 41,100 5,400 2,700 30,000 0,000 38,100 15/12/2022
CASTELLANO ., GIULIANO 0,900 1,800 33,000 0,000 35,700 0,900 0,300 33,000 0,000 34,200 15/12/2022
CASTELLANO CHAMORRO, MARTA 0,000 14,100 36,000 0,500 50,600 0,000 4,200 36,000 0,200 40,400 15/12/2022
CASTELLANO CONESA, JUAN FRANCISCO 4,800 2,400 36,000 0,000 43,200 4,800 2,400 36,000 0,000 43,200 15/12/2022
CASTELLANO RUZ, MARÍA ANTONIA 4,200 7,500 36,000 0,000 47,700 4,200 7,500 36,000 0,000 47,700 15/12/2022
CASTELLANOS BENÍTEZ, PEDRO 3,300 3,300 36,000 0,300 42,900 3,300 0,900 36,000 0,000 40,200 15/12/2022
CASTELLANOS MARTINEZ, JORGE 15,300 15,600 36,000 0,300 67,200 15,300 13,500 36,000 0,000 64,800 15/12/2022
CASTELLANOS MORENO, ALMUDENA 0,000 13,200 30,000 0,000 43,200 0,000 12,000 30,000 0,000 42,000 15/12/2022
CASTELLANOS RIOS, Mª CARMEN 15,150 19,000 36,000 3,500 73,650 15,150 19,000 36,000 3,500 73,650 15/12/2022
CASTELLÓ PAYÁ, MILAVÍ 0,000 8,400 33,000 0,000 41,400 0,000 5,700 16,925 0,000 22,625 15/12/2022
CASTELLON GALLEGOS, RAQUEL 50,700 6,900 36,000 3,900 97,500 50,700 6,900 36,000 3,800 97,400 15/12/2022
CASTILLA CABEZAS, SONIA 9,300 0,000 36,000 3,000 48,300 9,300 0,000 36,000 3,000 48,300 15/12/2022
CASTILLA CARRILLO, MARIA 10,800 4,500 36,000 0,500 51,800 10,800 4,500 36,000 0,500 51,800 15/12/2022
CASTILLA FERNANDEZ, JUAN DE DIOS 8,100 1,400 36,000 4,600 50,100 8,100 2,000 36,000 1,000 47,100 15/12/2022
CASTILLA GÓMEZ, ROSARIO 22,200 0,000 36,000 0,300 58,500 22,200 0,000 36,000 0,000 58,200 15/12/2022
CASTILLA LAZPITA, MARIA SANDRA 15,900 15,300 32,000 3,000 66,200 15,900 15,300 32,000 3,000 66,200 15/12/2022
CASTILLA MAESTRE, GLORIA 12,600 11,400 36,000 0,500 60,500 12,600 11,400 36,000 0,500 60,500 15/12/2022
CASTILLA MARQUEZ, ROCIO 27,900 2,400 36,000 7,000 73,300 27,900 2,400 36,000 7,000 73,300 15/12/2022
CASTILLA MOLINA, LAURA 23,100 11,100 39,000 7,275 80,475 23,100 11,100 39,000 7,075 80,275 15/12/2022
CASTILLO AREVALO, ANGELA 1,200 0,000 32,000 0,000 33,200 1,200 0,000 32,000 0,000 33,200 15/12/2022
CASTILLO BARBERO, LUZ MARINA 28,500 6,400 36,000 1,300 72,200 28,500 6,400 36,000 1,300 72,200 15/12/2022
CASTILLO BLANCAS, M ª CONCEPCION 29,700 0,000 36,000 3,000 68,700 29,700 0,000 36,000 3,000 68,700 15/12/2022
CASTILLO CAMERO, RAFAEL 15,300 8,400 36,000 5,300 65,000 15,300 8,400 36,000 2,300 62,000 15/12/2022
CASTILLO CAÑIZARES, BENJAMIN 21,600 8,250 36,000 0,300 66,150 21,600 8,250 36,000 0,000 65,850 15/12/2022
CASTILLO CARMONA, ANTONIO 1,200 19,500 36,000 1,900 58,600 1,200 19,500 36,000 1,000 57,700 15/12/2022
CASTILLO CORVILLO, CARLA 8,700 9,900 36,000 0,800 55,400 8,700 9,900 36,000 0,800 55,400 15/12/2022
CASTILLO DEL RIO, CRISTINA 0,000 52,800 30,000 3,000 85,800 0,000 33,600 30,000 3,000 66,600 15/12/2022
CASTILLO DIAZ, SILVIA 1,800 6,600 36,000 1,300 45,700 1,800 6,600 36,000 1,300 45,700 15/12/2022
CASTILLO FERNANDEZ, ELISABETH 23,700 14,700 36,000 0,525 74,925 23,700 14,700 36,000 0,425 74,825 15/12/2022
CASTILLO FLORES, Mª AUXILIADORA 18,000 5,400 39,000 6,000 68,400 18,000 5,400 39,000 6,000 68,400 15/12/2022
CASTILLO GALDEANO, ELENA MARÍA 9,600 58,500 30,000 3,375 101,475 9,600 58,500 30,000 3,350 101,450 15/12/2022
CASTILLO GALVAN, MODESTO 54,600 12,900 36,000 0,000 103,500 54,600 12,900 36,000 0,000 103,500 15/12/2022
CASTILLO GARCIA, SAMUEL 8,700 0,000 36,000 0,000 44,700 8,700 0,000 36,000 0,000 44,700 15/12/2022
CASTILLO GOMEZ, MARTA 3,700 0,000 36,000 0,000 39,700 3,700 0,000 36,000 0,000 39,700 15/12/2022
CASTILLO GOMEZ, PEDRO JESUS 14,100 35,400 36,000 4,300 89,800 14,100 35,400 36,000 3,700 89,200 15/12/2022
CASTILLO GONZÁLEZ, MARTA 7,200 6,800 36,000 0,300 50,300 7,200 0,000 34,025 0,000 41,225 15/12/2022
CASTILLO GOR, ANA ISABEL 20,700 5,100 36,000 4,500 66,300 20,700 5,100 36,000 4,500 66,300 15/12/2022
CASTILLO HERMOSO, MARÍA ÁNGELES 0,600 0,000 32,000 0,300 32,900 0,600 0,000 32,000 0,300 32,900 15/12/2022
CASTILLO JIMENEZ, ANA BELEN 12,000 4,650 36,000 0,000 52,650 12,000 4,650 36,000 0,000 52,650 15/12/2022
CASTILLO LOPEZ, FRANCISCO 0,000 45,600 36,000 9,000 90,600 0,000 27,900 34,750 9,000 71,650 15/12/2022
CASTILLO MARTÍN, ANTONIO 25,200 8,500 36,000 1,300 71,000 25,200 0,000 36,000 1,000 62,200 15/12/2022
CASTILLO MARTÍN, RAQUEL 0,900 26,700 36,000 0,000 63,600 0,900 26,700 36,000 0,000 63,600 15/12/2022
CASTILLO MENENDEZ, LUCIA 4,500 35,900 36,000 3,000 79,400 4,500 34,100 36,000 3,000 77,600 15/12/2022
CASTILLO MOLINA, ARÁNZAZU 6,900 28,500 36,000 0,000 71,400 6,900 28,500 36,000 0,000 71,400 15/12/2022
CASTILLO MUÑOZ, LORENA 5,400 2,100 36,000 5,800 49,300 5,400 2,100 36,000 0,500 44,000 15/12/2022
CASTILLO MURCIA, LAURA 0,000 12,000 32,750 1,000 45,750 0,000 10,800 3,000 0,000 13,800 15/12/2022
CASTILLO OLLER, CARLOS 1,800 52,650 36,000 0,350 90,800 1,800 51,000 36,000 0,000 88,800 15/12/2022
CASTILLO OLLER, FRANCISCO JAVIER 68,700 9,300 36,000 5,000 111,000 68,700 9,300 36,000 5,000 111,000 15/12/2022
CASTILLO PORRAS, ADOLFO 6,600 1,200 35,000 0,300 43,100 6,600 0,000 34,650 0,300 41,550 15/12/2022
CASTILLO PORTILLO, CRISTINA 0,300 62,700 36,000 3,375 102,375 0,300 62,700 36,000 3,125 102,125 15/12/2022
CASTILLO POSADA, CRISTINA 23,100 7,500 36,000 7,800 74,400 23,100 0,600 36,000 7,800 67,500 15/12/2022
CASTILLO POYO, BELEN 6,600 33,000 35,000 1,900 76,500 6,600 28,200 35,000 0,000 69,800 15/12/2022
CASTILLO RODRIGUEZ, AMPARO BEATRIZ 70,000 0,000 30,000 3,100 103,100 70,000 0,000 30,000 3,000 103,000 15/12/2022
CASTILLO RODRÍGUEZ, JOSÉ MANUEL 6,300 0,000 36,000 0,300 42,600 6,300 0,000 36,000 0,300 42,600 15/12/2022
CASTILLO ROMERO, RAQUEL 0,600 48,000 23,075 0,000 71,675 0,600 6,000 22,600 0,000 29,200 15/12/2022

* Los candidatos marcados con un asterisco no alcanzan la nota mínima exigida una vez baremados

- Al posicionarse sobre el número de página le aparecerá el rango alfabético de apellidos, nombre que contiene dicha página

[1]  [2]  [3]  [4]  [5]  [6]  [7]  [8]  [9]  [10]  [11]  [12]  [13]  [14]  [15]  [16]  [17]  [18]  [19]  [20]  [21]  [22]  [23]  [24]  [25]  [26]  [27]  [28]  [29]  [30]  [31]  [32]  [33]  [34]  [35]  [36]  [37]  [38]  [39]  [40]  [41]  [42]  [43]  [44]  [45]  [46]  [47]  [48]  [49]  [50]  [51]  [52]  [53]  [54]  [55]  [56] 


Color de candidatos/as que por autobaremo alcanzan puntuación mínima para formar parte de la bolsa Candidatos/as que por autobaremo alcanzan puntuación mínima para formar parte de la bolsa

Color de Candidatos/as que no alcanzan puntuación mínima para formar parte de la bolsa Candidatos/as que no alcanzan puntuación mínima para formar parte de la bolsa



[Volver]